Jutiapa, Guatemala
Current Conditions -  °F | °C
As of 6:50 PM on Saturday 20 Dec 2014 (Local Time) from MSSS Reporting Station
Few Clouds Few Clouds  
Wind Chill: 75°   Ceiling: Unl
Heat Index: 75°   Visibility: 6mi
Dew Point: 70°   Wind: 2mph
Humidity: 83%   Direction: 160°SSE
Pressure: 29.97"   Gusts: NA
Location:  14.17°N, 89.5°W
Report Text: MSSS 210050Z 16002KT 9999 FEW023 FEW040CB 24/21 Q1015 A2998 CB LTGIC TO NE
Loading
Personal Weather Stations






























Interactive Weather Map New forecast layout! Learn more

10-Day Weather Forecast

Advertisements
Track Severe Weather on mobile